메인 페이지
METAR-TAF:

METAR-TAF

공항 :

Weno, 미크로네시아

추크 국제공항

위도: 07-28N, 경도: 151-51E, 고도: 3m

현재 날씨관측

예보는 1 시간 7분 전, 14:50시(UTC)에 발표되었습니다.
북동10kt
온도 27°C
습도 84%
기압 1008 hPa
시정: 22.5km
고도 1200ft 상공 구름 보통, 적란운.
고도 12000ft 상공 흐림

METAR: PTKK 191450Z 04010KT 14SM SCT012CB OVC120 27/24 A2976 RMK CB ALQDS MOV SW SLP079 8/32/ T02690243 57014

시각: 01:57 (15:57 UTC)

예보

예보는 4 시간 17분 전, 11:40시(UTC)에 발표되었습니다.
예보 대상 시간: 19일 12시부터 20일 12시까지 (UTC)
북동10kt
시정: 10km
고도 1400ft 상공 구름 보통
고도 12000ft 상공 구름 많음
시계 내 소나기

TAF: PTKK 191140Z 1912/2012 04010KT P6SM VCSH SCT014 BKN120

4,000개 이상의 공항 관측 자료 및 예보 (METAR 및 TAF 보고).

지도상에서 검색 가능한 기상관측소가 노란 점과 빨간 점으로 표시되어 있습니다.

기상관측소 명을 보려면 표시 위로 마우스를 이동하세요.

날씨 관측과 예보를 보려면 클릭하세요.

지도 변경 : 확대하려면 엑스 표시가 있는 녹색 버튼, 축소하려면 빼기 표시가 있는 녹색 버튼, 다음 페이지의 지도를 보려면 녹색 화살표를 클릭하세요.


METAR-TAF: